createdAt,value
2022-10-18T00:01:00.388Z,15.12
2022-10-18T00:06:06.145Z,15.11
2022-10-18T00:39:01.565Z,14.71
2022-10-18T00:44:07.972Z,14.67
2022-10-18T00:49:16.090Z,14.61
2022-10-18T00:54:21.243Z,14.53
2022-10-18T00:59:26.777Z,14.44
2022-10-18T01:04:29.936Z,14.35
2022-10-18T01:09:39.250Z,14.33
2022-10-18T01:14:50.888Z,14.26
2022-10-18T01:20:22.765Z,14.15
2022-10-18T01:25:35.458Z,14.14
2022-10-18T01:30:46.862Z,14.10
2022-10-18T01:35:55.347Z,14.03
2022-10-18T01:41:00.897Z,13.98
2022-10-18T01:46:05.870Z,13.91
2022-10-18T01:51:10.338Z,13.87
2022-10-18T01:56:28.235Z,13.76
2022-10-18T02:01:39.683Z,13.72
2022-10-18T02:06:46.314Z,13.67
2022-10-18T02:11:54.210Z,13.65
2022-10-18T02:17:04.872Z,13.59
2022-10-18T02:22:09.693Z,13.51
2022-10-18T02:27:13.534Z,13.46
2022-10-18T02:32:22.624Z,13.44
2022-10-18T02:37:30.629Z,13.32
2022-10-18T02:42:37.881Z,13.26
2022-10-18T02:47:42.231Z,13.18
2022-10-18T02:52:45.255Z,13.16
2022-10-18T02:57:48.202Z,13.19
2022-10-18T03:02:53.838Z,13.14
2022-10-18T03:07:57.893Z,13.10
2022-10-18T03:13:00.963Z,13.02
2022-10-18T03:18:05.669Z,12.96
2022-10-18T03:23:08.523Z,12.94
2022-10-18T03:28:11.514Z,13.03
2022-10-18T03:33:16.924Z,13.09
2022-10-18T03:38:19.908Z,13.07
2022-10-18T03:43:22.910Z,13.04
2022-10-18T03:48:27.333Z,13.12
2022-10-18T03:53:30.245Z,13.01
2022-10-18T04:03:38.392Z,12.91
2022-10-18T04:08:41.361Z,12.80
2022-10-18T04:13:44.399Z,12.76
2022-10-18T04:18:48.848Z,12.74
2022-10-18T04:23:52.354Z,12.68
2022-10-18T04:28:55.538Z,12.59
2022-10-18T04:34:00.022Z,12.57
2022-10-18T04:39:03.079Z,12.54
2022-10-18T04:44:06.462Z,12.45
2022-10-18T04:49:10.868Z,12.45
2022-10-18T04:54:13.952Z,12.42
2022-10-18T04:59:17.127Z,12.36
2022-10-18T05:04:21.626Z,12.34
2022-10-18T05:09:24.916Z,12.29
2022-10-18T05:14:27.896Z,12.26
2022-10-18T05:19:32.246Z,12.26
2022-10-18T05:24:35.206Z,12.22
2022-10-18T05:29:38.161Z,12.20
2022-10-18T05:34:42.467Z,12.11
2022-10-18T05:39:48.574Z,12.02
2022-10-18T05:44:51.543Z,11.96
2022-10-18T05:49:56.072Z,11.92
2022-10-18T05:54:58.984Z,11.85
2022-10-18T06:00:01.983Z,11.81
2022-10-18T06:05:16.146Z,11.79
2022-10-18T06:10:19.357Z,11.71
2022-10-18T06:15:22.386Z,11.68
2022-10-18T06:20:26.839Z,11.59
2022-10-18T06:25:30.002Z,11.56
2022-10-18T06:30:34.323Z,11.52
2022-10-18T06:35:38.843Z,11.46
2022-10-18T06:40:41.803Z,11.54
2022-10-18T06:45:44.822Z,11.61
2022-10-18T06:50:55.000Z,11.68
2022-10-18T06:56:00.999Z,11.75
2022-10-18T07:01:08.276Z,11.79
2022-10-18T07:06:14.775Z,11.81
2022-10-18T07:11:21.160Z,11.90
2022-10-18T07:16:24.160Z,11.93
2022-10-18T07:21:28.777Z,11.98
2022-10-18T07:26:33.685Z,12.00
2022-10-18T07:31:38.441Z,12.06
2022-10-18T07:36:42.767Z,12.18
2022-10-18T07:41:45.758Z,12.27
2022-10-18T07:46:48.983Z,12.36
2022-10-18T07:51:53.448Z,12.39
2022-10-18T07:56:58.518Z,12.43
2022-10-18T08:02:01.510Z,12.44
2022-10-18T08:07:06.424Z,12.51
2022-10-18T08:12:09.771Z,12.58
2022-10-18T08:17:12.848Z,12.69
2022-10-18T08:22:17.139Z,12.76
2022-10-18T08:27:20.403Z,12.90
2022-10-18T08:32:23.519Z,13.03
2022-10-18T08:37:27.872Z,13.16
2022-10-18T08:43:04.022Z,13.42
2022-10-18T08:48:09.101Z,13.61
2022-10-18T08:53:20.889Z,13.91
2022-10-18T08:58:26.805Z,14.31
2022-10-18T09:03:49.216Z,14.78
2022-10-18T09:09:04.300Z,15.10
2022-10-18T09:14:39.662Z,15.47
2022-10-18T09:19:55.301Z,15.69
2022-10-18T09:25:07.325Z,15.83
2022-10-18T09:30:20.967Z,15.98
2022-10-18T09:35:27.147Z,16.30
2022-10-18T09:40:35.037Z,16.42
2022-10-18T09:45:41.583Z,16.75
2022-10-18T09:50:52.638Z,16.85
2022-10-18T09:56:03.381Z,17.09
2022-10-18T10:01:07.411Z,17.50
2022-10-18T10:06:19.511Z,17.62
2022-10-18T10:11:32.839Z,17.95
2022-10-18T10:16:44.906Z,18.07
2022-10-18T10:21:51.273Z,18.37
2022-10-18T10:27:03.012Z,18.51
2022-10-18T10:32:06.005Z,18.75
2022-10-18T10:37:25.218Z,18.74
2022-10-18T10:42:30.032Z,18.88
2022-10-18T10:47:34.871Z,18.96
2022-10-18T10:52:40.530Z,19.01
2022-10-18T10:57:51.113Z,18.75
2022-10-18T11:03:27.284Z,18.95
2022-10-18T11:08:37.011Z,18.99
2022-10-18T11:13:56.967Z,18.95
2022-10-18T11:19:30.966Z,19.01
2022-10-18T11:24:36.573Z,19.14
2022-10-18T11:29:52.724Z,19.41
2022-10-18T11:35:17.644Z,19.48
2022-10-18T11:40:37.562Z,19.41
2022-10-18T11:45:49.717Z,19.48
2022-10-18T11:50:59.144Z,19.94
2022-10-18T11:56:10.921Z,19.80
2022-10-18T12:01:28.436Z,19.79
2022-10-18T12:06:35.856Z,19.81
2022-10-18T12:11:47.162Z,19.80
2022-10-18T12:17:07.815Z,19.79
2022-10-18T12:22:22.471Z,20.06
2022-10-18T12:27:34.452Z,20.10
2022-10-18T12:32:40.299Z,20.04
2022-10-18T12:38:16.105Z,20.14
2022-10-18T12:43:23.014Z,19.97
2022-10-18T12:48:38.817Z,20.19
2022-10-18T12:53:45.009Z,20.10
2022-10-18T12:58:47.980Z,20.13
2022-10-18T13:03:58.718Z,20.03
2022-10-18T13:09:18.657Z,20.24
2022-10-18T13:14:53.625Z,20.31
2022-10-18T13:20:27.349Z,20.23
2022-10-18T13:25:39.856Z,20.20
2022-10-18T13:30:56.609Z,20.28
2022-10-18T13:36:03.039Z,20.47
2022-10-18T13:41:07.768Z,20.62
2022-10-18T13:46:10.842Z,20.47
2022-10-18T13:51:48.283Z,20.38
2022-10-18T13:57:15.759Z,20.58
2022-10-18T14:02:50.932Z,20.63
2022-10-18T14:08:06.932Z,20.76
2022-10-18T14:13:22.110Z,20.99
2022-10-18T14:18:32.024Z,20.91
2022-10-18T14:23:39.084Z,20.68
2022-10-18T14:28:59.154Z,20.62
2022-10-18T14:34:04.697Z,20.41
2022-10-18T14:39:21.097Z,20.24
2022-10-18T14:44:27.942Z,20.30
2022-10-18T14:49:31.505Z,20.13
2022-10-18T14:54:39.057Z,20.01
2022-10-18T14:59:46.779Z,19.89
2022-10-18T15:04:57.255Z,19.68
2022-10-18T15:10:04.093Z,19.74
2022-10-18T15:15:17.610Z,19.60
2022-10-18T15:20:25.030Z,19.49
2022-10-18T15:25:35.580Z,19.45
2022-10-18T15:30:42.614Z,19.36
2022-10-18T15:35:47.672Z,19.29
2022-10-18T15:40:52.175Z,19.28
2022-10-18T15:45:58.874Z,19.11
2022-10-18T15:51:06.663Z,18.94
2022-10-18T15:56:26.847Z,18.68
2022-10-18T16:01:35.611Z,18.51
2022-10-18T16:07:28.221Z,18.28
2022-10-18T16:12:32.577Z,18.09
2022-10-18T16:17:35.961Z,17.85
2022-10-18T16:22:39.244Z,17.64
2022-10-18T16:27:44.043Z,17.34
2022-10-18T16:32:48.981Z,17.09
2022-10-18T16:37:52.053Z,16.78
2022-10-18T16:42:56.493Z,16.56
2022-10-18T16:47:59.501Z,16.39
2022-10-18T16:53:02.421Z,16.20
2022-10-18T16:58:07.179Z,16.00
2022-10-18T17:03:10.397Z,15.78
2022-10-18T17:08:20.500Z,15.60
2022-10-18T17:13:26.483Z,15.52
2022-10-18T17:18:30.667Z,15.48
2022-10-18T17:23:34.288Z,15.37
2022-10-18T17:28:38.837Z,15.19
2022-10-18T17:33:41.934Z,15.05
2022-10-18T17:38:46.781Z,14.92
2022-10-18T17:43:51.511Z,14.77
2022-10-18T17:48:54.909Z,14.63
2022-10-18T17:53:57.925Z,14.39
2022-10-18T17:59:02.477Z,14.21
2022-10-18T18:04:05.597Z,14.05
2022-10-18T18:09:14.553Z,13.92
2022-10-18T18:14:19.371Z,13.88
2022-10-18T18:19:23.949Z,13.81
2022-10-18T18:24:27.371Z,13.72
2022-10-18T18:29:31.781Z,13.69
2022-10-18T18:34:35.140Z,13.60
2022-10-18T18:39:39.447Z,13.47
2022-10-18T18:44:45.997Z,13.36
2022-10-18T18:49:49.069Z,13.26
2022-10-18T18:54:52.223Z,13.09
2022-10-18T18:59:56.621Z,12.98
2022-10-18T19:04:59.664Z,12.87
2022-10-18T19:10:02.635Z,12.78
2022-10-18T19:15:08.291Z,12.65
2022-10-18T19:20:15.192Z,12.50
2022-10-18T19:25:19.420Z,12.36
2022-10-18T19:30:24.724Z,12.22
2022-10-18T19:35:27.803Z,12.11
2022-10-18T19:40:30.762Z,12.07
2022-10-18T19:45:35.228Z,11.96
2022-10-18T19:50:38.226Z,11.93
2022-10-18T19:55:41.093Z,11.86
2022-10-18T20:00:45.509Z,11.78
2022-10-18T20:05:48.573Z,11.68
2022-10-18T20:10:52.297Z,11.57
2022-10-18T20:15:56.772Z,11.48
2022-10-18T20:21:00.062Z,11.44
2022-10-18T20:26:05.098Z,11.36
2022-10-18T20:31:12.317Z,11.30
2022-10-18T20:36:17.215Z,11.22
2022-10-18T20:41:22.902Z,11.17
2022-10-18T20:46:28.280Z,11.14
2022-10-18T20:51:31.271Z,11.08
2022-10-18T20:56:36.677Z,11.02
2022-10-18T21:01:41.622Z,11.02
2022-10-18T21:06:45.291Z,11.02
2022-10-18T21:11:50.490Z,10.91
2022-10-18T21:16:55.001Z,10.86
2022-10-18T21:21:58.943Z,10.75
2022-10-18T21:27:02.087Z,10.69
2022-10-18T21:32:06.709Z,10.66
2022-10-18T21:37:09.806Z,10.68
2022-10-18T21:42:13.858Z,10.61
2022-10-18T21:47:18.398Z,10.50
2022-10-18T21:52:21.837Z,10.50
2022-10-18T21:57:24.858Z,10.43
2022-10-18T22:02:29.177Z,10.36
2022-10-18T22:07:32.365Z,10.28
2022-10-18T22:12:35.522Z,10.25
2022-10-18T22:17:40.118Z,10.27
2022-10-18T22:22:43.177Z,10.22
2022-10-18T22:27:46.143Z,10.14
2022-10-18T22:32:50.621Z,10.10
2022-10-18T22:37:55.314Z,10.04
2022-10-18T22:42:58.331Z,10.01
2022-10-18T22:48:02.836Z,9.93
2022-10-18T22:53:05.908Z,9.88
2022-10-18T22:58:08.900Z,9.82
2022-10-18T23:03:15.269Z,9.72
2022-10-18T23:08:18.277Z,9.61
2022-10-18T23:13:21.197Z,9.55
2022-10-18T23:18:25.640Z,9.50
2022-10-18T23:23:30.686Z,9.38
2022-10-18T23:28:37.950Z,9.29
2022-10-18T23:33:42.714Z,9.18
2022-10-18T23:38:46.057Z,9.11
2022-10-18T23:43:49.170Z,9.05
2022-10-18T23:48:53.536Z,9.05
2022-10-18T23:53:56.474Z,8.99
2022-10-18T23:58:59.470Z,8.91
